Time;durP1;ratioP1;P1;durP2;ratioP2;P2;SDS_P1;SDS_P2;PMS_P1;PMS_P2;Temp;Humidity;BMP_temperature;BMP_pressure;BME280_temperature;BME280_humidity;BME280_pressure;Samples;Min_cycle;Max_cycle;Signal;HPM_P1;HPM_P2
2022/08/04 00:51:04;;;;;;;9.77;6.93;;;;;;;;;;4389258;32;20096;-63
2022/08/04 00:54:08;;;;;;;8.50;6.12;;;;;;;;;;4392029;32;20487;-64
2022/08/04 00:57:13;;;;;;;8.90;6.20;;;;;;;;;;4391149;32;20054;-64
2022/08/04 00:59:53;;;;;;;10.27;7.05;;;;;;;;;;4391495;32;20088;-65
2022/08/04 01:02:34;;;;;;;8.98;5.93;;;;;;;;;;4390240;32;20161;-64
2022/08/04 01:05:02;;;;;;;8.57;6.15;;;;;;;;;;4390020;32;20072;-64
2022/08/04 01:07:56;;;;;;;8.57;6.40;;;;;;;;;;4389762;32;20085;-64
2022/08/04 01:10:41;;;;;;;7.65;6.20;;;;;;;;;;4390244;32;20086;-64
2022/08/04 01:13:47;;;;;;;8.07;6.35;;;;;;;;;;4389630;32;20546;-64
2022/08/04 01:16:16;;;;;;;7.35;5.90;;;;;;;;;;4389822;32;20455;-64
2022/08/04 01:18:49;;;;;;;8.40;6.10;;;;;;;;;;4389945;32;20089;-63
2022/08/04 01:21:57;;;;;;;9.27;6.20;;;;;;;;;;4389765;32;20099;-64
2022/08/04 01:24:25;;;;;;;10.85;5.75;;;;;;;;;;4389621;32;20066;-64
2022/08/04 01:26:54;;;;;;;7.93;5.70;;;;;;;;;;4390064;32;20065;-64
2022/08/04 01:29:22;;;;;;;8.80;6.00;;;;;;;;;;4391058;32;20169;-62
2022/08/04 01:32:02;;;;;;;8.93;5.75;;;;;;;;;;4377016;32;20093;-64
2022/08/04 01:34:55;;;;;;;12.43;6.22;;;;;;;;;;4389683;32;20070;-63
2022/08/04 01:37:29;;;;;;;12.52;7.32;;;;;;;;;;4379611;32;20560;-64
2022/08/04 01:40:07;;;;;;;13.25;8.10;;;;;;;;;;4391415;32;20072;-64
2022/08/04 01:42:35;;;;;;;18.55;10.38;;;;;;;;;;4390857;32;20519;-65
2022/08/04 01:45:07;;;;;;;19.52;10.63;;;;;;;;;;4389539;32;20615;-64
2022/08/04 01:47:35;;;;;;;16.60;10.65;;;;;;;;;;4391005;32;20575;-64
2022/08/04 01:50:08;;;;;;;18.17;10.82;;;;;;;;;;4391025;32;20062;-64
2022/08/04 01:52:36;;;;;;;18.67;10.85;;;;;;;;;;4390673;32;20159;-64
2022/08/04 01:55:06;;;;;;;27.02;15.10;;;;;;;;;;4376867;32;20086;-65
2022/08/04 01:57:33;;;;;;;38.53;18.87;;;;;;;;;;4392010;32;20108;-64
2022/08/04 02:00:01;;;;;;;40.22;20.95;;;;;;;;;;4392490;32;20165;-64
2022/08/04 02:02:28;;;;;;;42.05;20.45;;;;;;;;;;4379640;32;20078;-64
2022/08/04 02:04:55;;;;;;;31.23;16.83;;;;;;;;;;4393374;32;20175;-64
2022/08/04 02:07:32;;;;;;;27.48;15.25;;;;;;;;;;4392098;32;20077;-62
2022/08/04 02:10:03;;;;;;;18.27;11.10;;;;;;;;;;4367293;32;20073;-64
2022/08/04 02:12:39;;;;;;;18.98;11.05;;;;;;;;;;4392167;32;20156;-64
2022/08/04 02:15:17;;;;;;;18.35;10.98;;;;;;;;;;4392576;32;20078;-64
2022/08/04 02:18:01;;;;;;;17.80;9.60;;;;;;;;;;4393561;32;20576;-65
2022/08/04 02:20:48;;;;;;;15.70;9.70;;;;;;;;;;4393675;32;20104;-64
2022/08/04 02:23:23;;;;;;;18.37;9.20;;;;;;;;;;4391891;32;20516;-64
2022/08/04 02:25:57;;;;;;;16.70;9.63;;;;;;;;;;4392205;32;20162;-64
2022/08/04 02:28:29;;;;;;;18.60;10.57;;;;;;;;;;4392082;32;20074;-64
2022/08/04 02:31:17;;;;;;;16.02;10.52;;;;;;;;;;4392332;32;20119;-65
2022/08/04 02:33:51;;;;;;;20.52;11.57;;;;;;;;;;4391535;32;20081;-64
2022/08/04 02:36:27;;;;;;;23.60;12.43;;;;;;;;;;4391725;32;20083;-64
2022/08/04 02:38:57;;;;;;;16.62;12.02;;;;;;;;;;4394050;32;20082;-64
2022/08/04 02:41:25;;;;;;;18.23;11.30;;;;;;;;;;4392586;32;20088;-64
2022/08/04 02:43:57;;;;;;;20.50;11.68;;;;;;;;;;4392550;32;20532;-65
2022/08/04 02:46:24;;;;;;;16.40;10.05;;;;;;;;;;4380053;32;20072;-63
2022/08/04 02:48:52;;;;;;;17.67;10.13;;;;;;;;;;4392641;32;20093;-63
2022/08/04 02:51:27;;;;;;;16.98;9.82;;;;;;;;;;4392618;32;20553;-65
2022/08/04 02:53:56;;;;;;;14.77;9.30;;;;;;;;;;4391669;32;20549;-64
2022/08/04 02:56:24;;;;;;;14.35;8.70;;;;;;;;;;4393009;32;20081;-65
2022/08/04 02:58:56;;;;;;;15.13;9.38;;;;;;;;;;4392818;32;20071;-64
2022/08/04 03:01:23;;;;;;;14.60;9.00;;;;;;;;;;4368642;32;20139;-64
2022/08/04 03:04:31;;;;;;;12.32;8.77;;;;;;;;;;4393774;32;20066;-64
2022/08/04 03:07:16;;;;;;;;;;;;;;;;;;4369834;32;20519;-64
2022/08/04 03:10:10;;;;;;;11.68;7.03;;;;;;;;;;4393054;32;20048;-64
2022/08/04 03:13:07;;;;;;;11.12;7.15;;;;;;;;;;4379082;32;20109;-64
2022/08/04 03:15:49;;;;;;;9.85;7.22;;;;;;;;;;4392082;32;20084;-64
2022/08/04 03:18:43;;;;;;;12.05;6.95;;;;;;;;;;4391578;32;20053;-63
2022/08/04 03:21:47;;;;;;;10.13;7.43;;;;;;;;;;4391957;32;20510;-65
2022/08/04 03:24:42;;;;;;;12.68;8.02;;;;;;;;;;4390712;32;20070;-64
2022/08/04 03:27:37;;;;;;;11.55;7.82;;;;;;;;;;4391602;32;20089;-63
2022/08/04 03:30:27;;;;;;;12.02;8.18;;;;;;;;;;4379108;32;20077;-64
2022/08/04 03:33:05;;;;;;;14.10;8.43;;;;;;;;;;4392271;32;20588;-63
2022/08/04 03:35:41;;;;;;;10.82;7.20;;;;;;;;;;4390444;32;20456;-64
2022/08/04 03:38:33;;;;;;;12.25;8.15;;;;;;;;;;4392505;32;20153;-64
2022/08/04 03:41:39;;;;;;;10.55;8.05;;;;;;;;;;4392615;32;20070;-65
2022/08/04 03:44:15;;;;;;;17.00;8.38;;;;;;;;;;4390550;32;20093;-64
2022/08/04 03:46:51;;;;;;;13.50;7.78;;;;;;;;;;4392465;32;20138;-64
2022/08/04 03:49:38;;;;;;;13.88;7.60;;;;;;;;;;4392336;32;20077;-64
2022/08/04 03:55:24;;;;;;;;;;;;;;;;;;4391392;32;20081;-64
2022/08/04 03:58:16;;;;;;;13.85;9.05;;;;;;;;;;4392232;32;20038;-64
2022/08/04 04:01:10;;;;;;;13.40;8.32;;;;;;;;;;4391108;32;20082;-64
2022/08/04 04:03:55;;;;;;;15.95;10.02;;;;;;;;;;4391077;32;20073;-64
2022/08/04 04:06:31;;;;;;;18.62;10.10;;;;;;;;;;4391809;32;20073;-64
2022/08/04 04:09:25;;;;;;;14.45;9.25;;;;;;;;;;4390901;32;20085;-64
2022/08/04 04:12:22;;;;;;;16.55;9.70;;;;;;;;;;4391649;32;20138;-64
2022/08/04 04:15:23;;;;;;;15.68;9.55;;;;;;;;;;4390116;32;20077;-64
2022/08/04 04:18:16;;;;;;;15.13;9.70;;;;;;;;;;4391658;32;20070;-64
2022/08/04 04:21:01;;;;;;;16.20;9.35;;;;;;;;;;4390417;32;20093;-62
2022/08/04 04:23:53;;;;;;;14.85;10.25;;;;;;;;;;4390650;32;20057;-64
2022/08/04 04:26:37;;;;;;;17.87;11.50;;;;;;;;;;4390586;32;20600;-64
2022/08/04 04:29:43;;;;;;;15.82;11.00;;;;;;;;;;4390064;32;20153;-63
2022/08/04 04:32:42;;;;;;;19.58;12.15;;;;;;;;;;4359845;32;20078;-64
2022/08/04 04:35:24;;;;;;;20.25;12.63;;;;;;;;;;4391729;32;20605;-64
2022/08/04 04:38:21;;;;;;;19.92;12.70;;;;;;;;;;4391568;32;20093;-64
2022/08/04 04:41:06;;;;;;;27.50;12.77;;;;;;;;;;4391853;32;20073;-64
2022/08/04 04:43:51;;;;;;;19.35;12.13;;;;;;;;;;4391904;32;20084;-64
2022/08/04 04:46:55;;;;;;;19.80;11.30;;;;;;;;;;4391490;32;20077;-64
2022/08/04 04:49:36;;;;;;;16.77;11.98;;;;;;;;;;4391422;32;20104;-64
2022/08/04 04:52:12;;;;;;;18.20;11.10;;;;;;;;;;4389961;32;20519;-64
2022/08/04 04:55:14;;;;;;;18.80;10.43;;;;;;;;;;4389934;32;20504;-64
2022/08/04 04:57:42;;;;;;;17.77;10.27;;;;;;;;;;4390603;32;20062;-64
2022/08/04 05:00:12;;;;;;;19.05;11.63;;;;;;;;;;4389837;32;20152;-63
2022/08/04 05:02:44;;;;;;;27.60;12.13;;;;;;;;;;4377392;32;20077;-64
2022/08/04 05:05:14;;;;;;;26.00;13.55;;;;;;;;;;4377518;32;20092;-64
2022/08/04 05:08:03;;;;;;;29.10;14.68;;;;;;;;;;4389654;32;20516;-64
2022/08/04 05:11:07;;;;;;;30.25;15.38;;;;;;;;;;4389934;32;20504;-64
2022/08/04 05:13:49;;;;;;;26.85;13.85;;;;;;;;;;4390399;32;20085;-64
2022/08/04 05:16:25;;;;;;;30.67;14.93;;;;;;;;;;4391027;32;20076;-64
2022/08/04 05:19:38;;;;;;;31.65;14.38;;;;;;;;;;4391747;32;20473;-64
2022/08/04 05:22:09;;;;;;;20.48;11.23;;;;;;;;;;4370033;32;20075;-64
2022/08/04 05:24:40;;;;;;;25.10;12.52;;;;;;;;;;4389775;32;20086;-63
2022/08/04 05:27:30;;;;;;;21.75;11.63;;;;;;;;;;4390101;32;20093;-63
2022/08/04 05:30:03;;;;;;;18.52;11.25;;;;;;;;;;4377678;32;20077;-63
2022/08/04 05:32:37;;;;;;;18.40;10.57;;;;;;;;;;4380490;32;20548;-63
2022/08/04 05:35:08;;;;;;;16.62;10.88;;;;;;;;;;4380375;32;20088;-64
2022/08/04 05:37:38;;;;;;;15.77;9.20;;;;;;;;;;4392785;32;20083;-64
2022/08/04 05:40:07;;;;;;;15.90;9.23;;;;;;;;;;4367282;32;20085;-64
2022/08/04 05:42:37;;;;;;;16.12;10.30;;;;;;;;;;4392421;32;20166;-63
2022/08/04 05:45:05;;;;;;;17.37;8.45;;;;;;;;;;4392928;32;20088;-64
2022/08/04 05:47:33;;;;;;;14.85;9.23;;;;;;;;;;4379769;32;20077;-63
2022/08/04 05:50:01;;;;;;;13.25;8.48;;;;;;;;;;4393781;32;20101;-64
2022/08/04 05:52:29;;;;;;;17.77;10.68;;;;;;;;;;4379963;32;20252;-63
2022/08/04 05:54:56;;;;;;;16.77;9.18;;;;;;;;;;4391988;32;20088;-64
2022/08/04 05:57:23;;;;;;;12.95;8.70;;;;;;;;;;4392175;32;20526;-64
2022/08/04 05:59:50;;;;;;;11.65;8.55;;;;;;;;;;4392164;32;20072;-64
2022/08/04 06:02:18;;;;;;;13.38;8.25;;;;;;;;;;4392238;32;20078;-64
2022/08/04 06:04:49;;;;;;;11.77;8.43;;;;;;;;;;4392296;32;20066;-64
2022/08/04 06:07:16;;;;;;;12.50;8.80;;;;;;;;;;4392294;32;20235;-64
2022/08/04 06:09:43;;;;;;;11.65;8.00;;;;;;;;;;4392161;32;20137;-64
2022/08/04 06:12:21;;;;;;;16.20;9.25;;;;;;;;;;4393095;32;20159;-64
2022/08/04 06:14:51;;;;;;;11.90;7.80;;;;;;;;;;4392580;32;20506;-64
2022/08/04 06:17:39;;;;;;;15.38;8.55;;;;;;;;;;4391963;32;20061;-64
2022/08/04 06:20:08;;;;;;;16.75;10.15;;;;;;;;;;4392445;32;20464;-63
2022/08/04 06:22:39;;;;;;;11.63;8.43;;;;;;;;;;4391879;32;20073;-64
2022/08/04 06:25:06;;;;;;;12.68;7.62;;;;;;;;;;4391895;32;20091;-65
2022/08/04 06:27:33;;;;;;;12.95;8.45;;;;;;;;;;4391741;32;20180;-64
2022/08/04 06:30:01;;;;;;;10.80;7.87;;;;;;;;;;4391630;32;20124;-65
2022/08/04 06:32:46;;;;;;;11.00;8.13;;;;;;;;;;4379286;32;20090;-64
2022/08/04 06:35:15;;;;;;;14.32;7.40;;;;;;;;;;4391618;32;20078;-64
2022/08/04 06:37:42;;;;;;;14.10;8.88;;;;;;;;;;4392123;32;20066;-64
2022/08/04 06:40:10;;;;;;;18.08;10.38;;;;;;;;;;4391354;32;20153;-64
2022/08/04 06:42:37;;;;;;;16.10;8.40;;;;;;;;;;4390768;32;20146;-65
2022/08/04 06:45:05;;;;;;;16.77;8.50;;;;;;;;;;4378854;32;20145;-64
2022/08/04 06:47:32;;;;;;;10.45;7.28;;;;;;;;;;4393009;32;20085;-63
2022/08/04 06:50:00;;;;;;;15.93;7.75;;;;;;;;;;4379556;32;20089;-64
2022/08/04 06:52:26;;;;;;;11.20;7.50;;;;;;;;;;4391034;32;20082;-65
2022/08/04 06:54:54;;;;;;;14.00;8.13;;;;;;;;;;4366798;32;20169;-65
2022/08/04 06:57:24;;;;;;;7.95;5.37;;;;;;;;;;4391437;32;20081;-65
2022/08/04 07:00:12;;;;;;;11.73;7.00;;;;;;;;;;4378587;32;20111;-65
2022/08/04 07:02:49;;;;;;;12.80;7.22;;;;;;;;;;4379130;32;20071;-64
2022/08/04 07:05:17;;;;;;;9.73;5.55;;;;;;;;;;4378857;32;20146;-66
2022/08/04 07:07:44;;;;;;;9.50;5.75;;;;;;;;;;4378888;32;20174;-65
2022/08/04 07:10:11;;;;;;;10.13;6.20;;;;;;;;;;4378571;32;20109;-66
2022/08/04 07:12:39;;;;;;;10.88;7.00;;;;;;;;;;4378109;32;20148;-66
2022/08/04 07:15:07;;;;;;;7.40;5.35;;;;;;;;;;4378291;32;20153;-65
2022/08/04 07:17:38;;;;;;;10.85;5.70;;;;;;;;;;4365894;32;20088;-66
2022/08/04 07:20:05;;;;;;;7.20;5.05;;;;;;;;;;4365901;32;20101;-64
2022/08/04 07:22:33;;;;;;;10.38;5.80;;;;;;;;;;4378401;32;20085;-65
2022/08/04 07:24:59;;;;;;;9.90;5.90;;;;;;;;;;4378365;32;20175;-67
2022/08/04 13:12:38;;;;;;;5.53;2.85;;;;;;;;;;3871606;37;20172;-66
2022/08/04 13:15:14;;;;;;;4.55;2.75;;;;;;;;;;4412167;32;20086;-65
2022/08/04 13:18:01;;;;;;;4.95;2.75;;;;;;;;;;4420547;32;20100;-67
2022/08/04 13:20:31;;;;;;;3.40;2.10;;;;;;;;;;4429027;32;20114;-68
2022/08/04 13:23:07;;;;;;;4.37;2.30;;;;;;;;;;4427494;32;20160;-66
2022/08/04 13:25:39;;;;;;;6.00;2.83;;;;;;;;;;4424122;32;20103;-65
2022/08/04 13:28:07;;;;;;;5.72;2.37;;;;;;;;;;4413482;32;20065;-62
2022/08/04 13:30:34;;;;;;;4.40;2.62;;;;;;;;;;4418545;32;20148;-66
2022/08/04 13:33:07;;;;;;;5.57;2.75;;;;;;;;;;4392923;32;20515;-65
2022/08/04 13:35:36;;;;;;;4.37;3.00;;;;;;;;;;4407170;32;20087;-65
2022/08/04 13:38:05;;;;;;;3.78;3.00;;;;;;;;;;4426245;32;20100;-68
2022/08/04 13:40:32;;;;;;;4.28;3.28;;;;;;;;;;4425586;32;20108;-69
2022/08/04 13:42:59;;;;;;;5.55;3.50;;;;;;;;;;4415522;32;20172;-67
2022/08/04 13:45:26;;;;;;;5.28;3.62;;;;;;;;;;4406395;32;20169;-66
2022/08/04 13:47:59;;;;;;;6.47;4.90;;;;;;;;;;4400927;32;20080;-69
2022/08/04 13:50:29;;;;;;;5.32;3.78;;;;;;;;;;4399636;32;20513;-65
2022/08/04 13:52:58;;;;;;;6.57;4.12;;;;;;;;;;4421406;32;20071;-65
2022/08/04 13:55:31;;;;;;;5.47;4.12;;;;;;;;;;4410396;32;20112;-65
2022/08/04 13:58:13;;;;;;;5.75;4.35;;;;;;;;;;4420017;32;20103;-65
2022/08/04 14:00:53;;;;;;;6.40;4.15;;;;;;;;;;4430031;32;20096;-66
2022/08/04 14:03:40;;;;;;;5.10;4.00;;;;;;;;;;4409285;32;20539;-65
2022/08/04 14:06:10;;;;;;;4.82;3.87;;;;;;;;;;4406142;32;20089;-64
2022/08/04 14:08:55;;;;;;;7.62;4.50;;;;;;;;;;4413163;32;20161;-64
2022/08/04 14:11:42;;;;;;;7.00;4.75;;;;;;;;;;4389600;32;20074;-66
2022/08/04 14:14:14;;;;;;;7.72;5.55;;;;;;;;;;4388349;32;20581;-65
2022/08/04 14:17:01;;;;;;;7.30;5.12;;;;;;;;;;4400407;32;20519;-64
2022/08/04 14:19:37;;;;;;;5.55;3.95;;;;;;;;;;4384374;32;20065;-65
2022/08/04 14:22:04;;;;;;;6.35;4.65;;;;;;;;;;4379519;32;20090;-62
2022/08/04 14:24:30;;;;;;;6.87;4.57;;;;;;;;;;4400637;32;20184;-65
2022/08/04 14:27:00;;;;;;;5.68;4.22;;;;;;;;;;4397421;32;20080;-66
2022/08/04 14:29:36;;;;;;;7.47;4.32;;;;;;;;;;4398708;32;20134;-64
2022/08/04 14:32:05;;;;;;;8.73;4.70;;;;;;;;;;4395244;32;20073;-65
2022/08/04 14:34:32;;;;;;;8.75;5.72;;;;;;;;;;4386285;32;20081;-66
2022/08/04 14:37:07;;;;;;;7.35;5.75;;;;;;;;;;4394515;32;20093;-67
2022/08/04 14:39:46;;;;;;;7.87;5.95;;;;;;;;;;4389498;32;20070;-64
2022/08/04 14:42:14;;;;;;;7.75;4.87;;;;;;;;;;4401215;32;20137;-69
2022/08/04 14:44:54;;;;;;;5.18;4.07;;;;;;;;;;4379403;32;20093;-72
2022/08/04 14:47:46;;;;;;;5.65;4.12;;;;;;;;;;4392133;32;20082;-73
2022/08/04 14:50:14;;;;;;;8.45;4.37;;;;;;;;;;4391830;32;20181;-77
2022/08/04 14:52:41;;;;;;;7.90;4.07;;;;;;;;;;4393054;32;20076;-71
2022/08/04 14:55:21;;;;;;;6.18;4.32;;;;;;;;;;4392644;32;20093;-68
2022/08/04 14:57:52;;;;;;;5.57;4.40;;;;;;;;;;4382757;32;20479;-67
2022/08/04 15:00:30;;;;;;;5.30;3.75;;;;;;;;;;4385389;32;20146;-66
2022/08/04 15:03:08;;;;;;;7.53;4.80;;;;;;;;;;4401519;32;20148;-69
2022/08/04 15:05:41;;;;;;;8.10;5.10;;;;;;;;;;4404911;32;20066;-69
2022/08/04 15:08:08;;;;;;;5.43;4.15;;;;;;;;;;4406333;32;20089;-68
2022/08/04 15:10:35;;;;;;;8.40;4.90;;;;;;;;;;4405929;32;20147;-69
2022/08/04 15:13:02;;;;;;;5.82;4.25;;;;;;;;;;4406404;32;20077;-69
2022/08/04 15:15:29;;;;;;;7.07;4.05;;;;;;;;;;4406698;32;20586;-69
2022/08/04 15:17:56;;;;;;;5.85;4.45;;;;;;;;;;4406525;32;20154;-68
2022/08/04 15:20:22;;;;;;;5.75;3.87;;;;;;;;;;4393811;32;20455;-69
2022/08/04 15:22:49;;;;;;;6.72;4.35;;;;;;;;;;4406393;32;20104;-69
2022/08/04 15:25:16;;;;;;;6.28;4.82;;;;;;;;;;4405315;32;20511;-68
2022/08/04 15:27:46;;;;;;;8.88;4.80;;;;;;;;;;4406181;32;20101;-68
2022/08/04 15:30:14;;;;;;;8.23;5.07;;;;;;;;;;4381005;32;20101;-69
2022/08/04 15:32:48;;;;;;;7.32;5.07;;;;;;;;;;4406195;32;20092;-69
2022/08/04 15:35:20;;;;;;;7.30;5.55;;;;;;;;;;4406181;32;20070;-68
2022/08/04 15:38:07;;;;;;;8.20;5.97;;;;;;;;;;4394546;32;20074;-69
2022/08/04 15:40:45;;;;;;;7.55;5.60;;;;;;;;;;4407606;32;20092;-68
2022/08/04 15:43:18;;;;;;;9.63;5.62;;;;;;;;;;4406433;32;20074;-69
2022/08/04 15:46:00;;;;;;;9.73;6.80;;;;;;;;;;4406027;32;20078;-69
2022/08/04 15:48:28;;;;;;;10.38;6.32;;;;;;;;;;4406360;32;20119;-69
2022/08/04 15:50:57;;;;;;;11.43;6.37;;;;;;;;;;4406285;32;20503;-69
2022/08/04 15:53:25;;;;;;;8.90;6.47;;;;;;;;;;4406524;32;20165;-69
2022/08/04 15:55:52;;;;;;;9.55;6.62;;;;;;;;;;4393555;32;20648;-69
2022/08/04 15:58:19;;;;;;;10.25;7.03;;;;;;;;;;4405751;32;20089;-69
2022/08/04 16:00:49;;;;;;;8.75;6.97;;;;;;;;;;4392971;32;20157;-70
2022/08/04 16:03:34;;;;;;;9.05;6.57;;;;;;;;;;4407369;32;20104;-67
2022/08/04 16:06:06;;;;;;;11.12;6.22;;;;;;;;;;4407162;32;20074;-67
2022/08/04 16:08:48;;;;;;;9.60;6.95;;;;;;;;;;4405827;32;20065;-68
2022/08/04 16:11:31;;;;;;;8.38;6.07;;;;;;;;;;4407021;32;20077;-69
2022/08/04 16:14:00;;;;;;;8.65;5.93;;;;;;;;;;4405595;32;20073;-68
2022/08/04 16:16:41;;;;;;;9.25;6.32;;;;;;;;;;4405738;32;20085;-68
2022/08/04 16:19:17;;;;;;;8.40;5.75;;;;;;;;;;4407379;32;20087;-68
2022/08/04 16:21:52;;;;;;;9.50;6.03;;;;;;;;;;4407128;32;20073;-69
2022/08/04 16:24:37;;;;;;;11.18;6.22;;;;;;;;;;4405672;32;20077;-69
2022/08/04 16:27:16;;;;;;;8.52;6.07;;;;;;;;;;4393180;32;20077;-68
2022/08/04 16:29:46;;;;;;;7.95;5.90;;;;;;;;;;4381073;32;20474;-68
2022/08/04 16:32:24;;;;;;;8.95;6.10;;;;;;;;;;4404263;32;20112;-69
2022/08/04 16:34:58;;;;;;;8.57;6.20;;;;;;;;;;4391632;32;20077;-68
2022/08/04 16:37:45;;;;;;;8.18;6.05;;;;;;;;;;4392540;32;20070;-68
2022/08/04 16:40:35;;;;;;;8.75;6.25;;;;;;;;;;4407099;32;20074;-70
2022/08/04 16:43:12;;;;;;;10.18;6.60;;;;;;;;;;4405126;32;20092;-68
2022/08/04 16:45:42;;;;;;;12.82;7.87;;;;;;;;;;4406626;32;20069;-69
2022/08/04 16:48:10;;;;;;;9.13;6.68;;;;;;;;;;4405462;32;20154;-71
2022/08/04 16:50:48;;;;;;;8.43;7.07;;;;;;;;;;4394246;32;20093;-69
2022/08/04 16:53:17;;;;;;;9.50;6.85;;;;;;;;;;4393277;32;20184;-68
2022/08/04 16:55:50;;;;;;;8.88;7.43;;;;;;;;;;4380583;32;20169;-69
2022/08/04 16:58:29;;;;;;;11.48;6.55;;;;;;;;;;4405362;32;20100;-69
2022/08/04 17:00:55;;;;;;;8.90;6.37;;;;;;;;;;4405178;32;20070;-68
2022/08/04 17:03:22;;;;;;;10.27;7.00;;;;;;;;;;4404941;32;20100;-68
2022/08/04 17:05:49;;;;;;;9.70;6.70;;;;;;;;;;4405313;32;20084;-68
2022/08/04 17:08:19;;;;;;;16.35;6.87;;;;;;;;;;4404937;32;20073;-68
2022/08/04 17:10:49;;;;;;;14.68;7.37;;;;;;;;;;4404956;32;20081;-68
2022/08/04 17:13:37;;;;;;;10.32;5.78;;;;;;;;;;4407540;32;20078;-69
2022/08/04 17:16:07;;;;;;;9.98;6.10;;;;;;;;;;4405069;32;20054;-68
2022/08/04 17:18:36;;;;;;;11.52;6.40;;;;;;;;;;4392356;32;20089;-68
2022/08/04 17:21:27;;;;;;;8.65;5.65;;;;;;;;;;4405576;32;20097;-68
2022/08/04 17:23:56;;;;;;;10.55;6.18;;;;;;;;;;4404798;32;20507;-68
2022/08/04 17:26:26;;;;;;;8.20;5.97;;;;;;;;;;4405190;32;20517;-69
2022/08/04 17:28:57;;;;;;;8.15;5.87;;;;;;;;;;4404894;32;20152;-68
2022/08/04 17:31:25;;;;;;;7.93;6.10;;;;;;;;;;4392645;32;20085;-68
2022/08/04 17:33:54;;;;;;;8.45;6.05;;;;;;;;;;4405327;32;20138;-69
2022/08/04 17:36:25;;;;;;;12.60;6.53;;;;;;;;;;4406497;32;20177;-69
2022/08/04 17:38:54;;;;;;;10.85;6.68;;;;;;;;;;4404688;32;20153;-69
2022/08/04 17:41:25;;;;;;;8.40;6.47;;;;;;;;;;4392681;32;20077;-69
2022/08/04 17:43:55;;;;;;;9.13;6.07;;;;;;;;;;4404979;32;20069;-68
2022/08/04 17:46:31;;;;;;;9.15;6.28;;;;;;;;;;4406838;32;20143;-68
2022/08/04 17:49:06;;;;;;;11.15;6.10;;;;;;;;;;4407720;32;20074;-69
2022/08/04 17:51:52;;;;;;;12.90;6.73;;;;;;;;;;4395857;32;20496;-69
2022/08/04 17:54:21;;;;;;;13.20;6.73;;;;;;;;;;4395571;32;20170;-69
2022/08/04 17:56:52;;;;;;;9.55;6.28;;;;;;;;;;4407690;32;20080;-68
2022/08/04 17:59:22;;;;;;;11.82;7.00;;;;;;;;;;4395346;32;20074;-69
2022/08/04 18:01:51;;;;;;;9.88;6.70;;;;;;;;;;4408529;32;20081;-69
2022/08/04 18:04:27;;;;;;;10.52;7.05;;;;;;;;;;4409369;32;20132;-68
2022/08/04 18:06:59;;;;;;;9.77;6.30;;;;;;;;;;4407596;32;20089;-68
2022/08/04 18:09:31;;;;;;;11.73;6.45;;;;;;;;;;4407717;32;20069;-69
2022/08/04 18:12:00;;;;;;;10.48;6.50;;;;;;;;;;4407560;32;20088;-68
2022/08/04 18:14:35;;;;;;;10.18;7.15;;;;;;;;;;4394823;32;20080;-69
2022/08/04 18:17:02;;;;;;;9.03;6.60;;;;;;;;;;4407996;32;20081;-68
2022/08/04 18:19:29;;;;;;;10.02;6.03;;;;;;;;;;4406739;32;20181;-68
2022/08/04 18:21:55;;;;;;;8.90;6.75;;;;;;;;;;4407410;32;20144;-67
2022/08/04 18:24:22;;;;;;;11.73;6.97;;;;;;;;;;4407237;32;20073;-68
2022/08/04 18:26:49;;;;;;;11.45;6.32;;;;;;;;;;4395081;32;20163;-68
2022/08/04 18:29:16;;;;;;;12.13;7.40;;;;;;;;;;4394754;32;20105;-68
2022/08/04 18:31:43;;;;;;;10.93;6.87;;;;;;;;;;4381902;32;20148;-67
2022/08/04 18:34:09;;;;;;;10.80;6.87;;;;;;;;;;4381927;32;20081;-68
2022/08/04 18:36:36;;;;;;;10.52;7.30;;;;;;;;;;4406616;32;20081;-69
2022/08/04 18:39:05;;;;;;;10.20;6.87;;;;;;;;;;4394369;32;20142;-69
2022/08/04 18:41:33;;;;;;;9.80;6.55;;;;;;;;;;4406902;32;20081;-69
2022/08/04 18:44:00;;;;;;;10.55;6.75;;;;;;;;;;4395013;32;20069;-69
2022/08/04 18:46:27;;;;;;;11.57;6.60;;;;;;;;;;4406579;32;20508;-68
2022/08/04 18:48:53;;;;;;;9.63;6.80;;;;;;;;;;4406857;32;20096;-68
2022/08/04 18:51:21;;;;;;;9.73;7.80;;;;;;;;;;4394182;32;20149;-68
2022/08/04 18:53:47;;;;;;;12.20;8.48;;;;;;;;;;4406756;32;20074;-69
2022/08/04 18:56:15;;;;;;;11.57;7.03;;;;;;;;;;4394335;32;20435;-68
2022/08/04 18:58:42;;;;;;;13.57;8.10;;;;;;;;;;4394639;32;20517;-68
2022/08/04 19:01:10;;;;;;;11.80;8.68;;;;;;;;;;4393893;32;20084;-68
2022/08/04 19:03:36;;;;;;;11.00;7.65;;;;;;;;;;4406512;32;20093;-67
2022/08/04 19:06:03;;;;;;;13.32;7.97;;;;;;;;;;4406495;32;20117;-68
2022/08/04 19:08:30;;;;;;;11.77;7.40;;;;;;;;;;4406315;32;20078;-68
2022/08/04 19:10:59;;;;;;;11.95;6.53;;;;;;;;;;4406117;32;20530;-68
2022/08/04 19:13:26;;;;;;;13.18;5.72;;;;;;;;;;4394236;32;20479;-67
2022/08/04 19:15:53;;;;;;;8.40;6.50;;;;;;;;;;4406950;32;20069;-69
2022/08/04 19:18:20;;;;;;;9.77;5.47;;;;;;;;;;4406419;32;20170;-69
2022/08/04 19:20:47;;;;;;;8.95;5.72;;;;;;;;;;4393705;32;20079;-69
2022/08/04 19:23:13;;;;;;;8.65;5.68;;;;;;;;;;4406856;32;20085;-69
2022/08/04 19:25:40;;;;;;;7.78;5.35;;;;;;;;;;4393683;32;20157;-68
2022/08/04 19:28:07;;;;;;;8.40;5.28;;;;;;;;;;4406234;32;20065;-69
2022/08/04 19:30:34;;;;;;;10.25;5.62;;;;;;;;;;4381635;32;20158;-69
2022/08/04 19:33:01;;;;;;;9.07;4.87;;;;;;;;;;4407646;32;20073;-69
2022/08/04 19:35:27;;;;;;;5.57;4.50;;;;;;;;;;4405855;32;20073;-69
2022/08/04 19:37:54;;;;;;;9.13;5.37;;;;;;;;;;4406038;32;20124;-67
2022/08/04 19:40:23;;;;;;;7.85;4.97;;;;;;;;;;4407409;32;20065;-68
2022/08/04 19:42:50;;;;;;;6.30;4.70;;;;;;;;;;4381435;32;20085;-69
2022/08/04 19:45:17;;;;;;;5.80;4.22;;;;;;;;;;4393592;32;20177;-68
2022/08/04 19:47:44;;;;;;;6.03;4.25;;;;;;;;;;4380752;32;20089;-69
2022/08/04 19:50:11;;;;;;;6.18;4.57;;;;;;;;;;4393357;32;20096;-68
2022/08/04 19:52:37;;;;;;;12.63;4.70;;;;;;;;;;4393955;32;20077;-69
2022/08/04 19:55:04;;;;;;;8.43;4.37;;;;;;;;;;4406155;32;20084;-69
2022/08/04 19:57:31;;;;;;;7.68;4.57;;;;;;;;;;4405570;32;20503;-69
2022/08/04 19:59:57;;;;;;;7.55;4.15;;;;;;;;;;4407113;32;20093;-68
2022/08/04 20:02:24;;;;;;;11.75;4.90;;;;;;;;;;4406847;32;20100;-69
2022/08/04 20:04:51;;;;;;;14.32;5.07;;;;;;;;;;4405915;32;20522;-69
2022/08/04 20:07:17;;;;;;;10.82;5.60;;;;;;;;;;4407188;32;20156;-67
2022/08/04 20:09:44;;;;;;;11.35;5.05;;;;;;;;;;4379715;32;20443;-69
2022/08/04 20:12:11;;;;;;;14.05;6.03;;;;;;;;;;4406888;32;20165;-68
2022/08/04 20:14:38;;;;;;;15.77;6.15;;;;;;;;;;4405547;32;20542;-69
2022/08/04 20:17:05;;;;;;;18.52;5.70;;;;;;;;;;4406843;32;20076;-69
2022/08/04 20:19:32;;;;;;;11.60;5.37;;;;;;;;;;4405769;32;20101;-69
2022/08/04 20:21:59;;;;;;;12.90;6.25;;;;;;;;;;4405392;32;20084;-69
2022/08/04 20:24:25;;;;;;;13.75;6.03;;;;;;;;;;4405431;32;20093;-69
2022/08/04 20:26:52;;;;;;;18.50;6.25;;;;;;;;;;4406688;32;20074;-69
2022/08/04 20:29:19;;;;;;;11.63;6.32;;;;;;;;;;4405575;32;20099;-69
2022/08/04 20:31:45;;;;;;;15.30;6.32;;;;;;;;;;4393736;32;20142;-68
2022/08/04 20:34:12;;;;;;;11.43;6.07;;;;;;;;;;4405505;32;20068;-69
2022/08/04 20:36:40;;;;;;;12.00;5.65;;;;;;;;;;4406590;32;20070;-69
2022/08/04 20:39:07;;;;;;;12.02;6.55;;;;;;;;;;4405309;32;20079;-69
2022/08/04 20:41:33;;;;;;;7.82;6.03;;;;;;;;;;4405289;32;20094;-69
2022/08/04 20:44:00;;;;;;;15.18;7.10;;;;;;;;;;4406805;32;20085;-69
2022/08/04 20:46:27;;;;;;;14.35;6.78;;;;;;;;;;4392983;32;20097;-67
2022/08/04 20:48:54;;;;;;;15.50;7.07;;;;;;;;;;4405076;32;20061;-69
2022/08/04 20:51:22;;;;;;;15.38;7.10;;;;;;;;;;4405218;32;20248;-67
2022/08/04 20:53:49;;;;;;;14.98;7.32;;;;;;;;;;4405223;32;20150;-69
2022/08/04 20:56:15;;;;;;;9.50;6.70;;;;;;;;;;4380704;32;20080;-69
2022/08/04 20:58:42;;;;;;;13.23;6.78;;;;;;;;;;4406841;32;20483;-68
2022/08/04 21:01:09;;;;;;;10.30;7.00;;;;;;;;;;4406252;32;20176;-69
2022/08/04 21:06:21;;;;;;;12.52;6.65;;;;;;;;;;4407616;32;20242;-69
2022/08/04 21:08:48;;;;;;;13.57;7.18;;;;;;;;;;4405069;32;20502;-69
2022/08/04 21:11:15;;;;;;;12.20;7.22;;;;;;;;;;4404921;32;20463;-68
2022/08/04 21:13:42;;;;;;;18.02;7.55;;;;;;;;;;4393973;32;20074;-68
2022/08/04 21:16:08;;;;;;;21.02;8.63;;;;;;;;;;4408808;32;20093;-69
2022/08/04 21:18:35;;;;;;;13.90;8.00;;;;;;;;;;4392498;32;20083;-68
2022/08/04 21:21:02;;;;;;;13.45;8.23;;;;;;;;;;4406423;32;20091;-68
2022/08/04 21:23:28;;;;;;;19.25;9.35;;;;;;;;;;4382019;32;20578;-69
2022/08/04 21:26:04;;;;;;;19.85;9.57;;;;;;;;;;4408148;32;20504;-68
2022/08/04 21:28:32;;;;;;;21.37;8.55;;;;;;;;;;4409775;32;20079;-68
2022/08/04 21:30:59;;;;;;;20.02;9.15;;;;;;;;;;4408607;32;20507;-69
2022/08/04 21:33:27;;;;;;;17.92;8.65;;;;;;;;;;4407895;32;20092;-69
2022/08/04 21:35:54;;;;;;;18.77;8.68;;;;;;;;;;4395391;32;20180;-68
2022/08/04 21:38:21;;;;;;;13.05;8.45;;;;;;;;;;4407717;32;20088;-68
2022/08/04 21:40:54;;;;;;;16.73;8.63;;;;;;;;;;4407779;32;20055;-69
2022/08/04 21:43:22;;;;;;;15.45;8.52;;;;;;;;;;4409226;32;20527;-69
2022/08/04 21:45:48;;;;;;;17.30;8.80;;;;;;;;;;4407706;32;20074;-67
2022/08/04 21:48:15;;;;;;;17.60;8.23;;;;;;;;;;4407657;32;20077;-69
2022/08/04 21:50:42;;;;;;;15.68;8.40;;;;;;;;;;4407436;32;20090;-68
2022/08/04 21:53:09;;;;;;;15.60;7.30;;;;;;;;;;4407356;32;20084;-69